sensor_id;sensor_type;location;lat;lon;timestamp;temperature;humidity
21425;DHT22;10873;51.132;16.848;2023-04-07T00:00:56;23.70;41.90
21425;DHT22;10873;51.132;16.848;2023-04-07T00:03:22;23.60;41.90
21425;DHT22;10873;51.132;16.848;2023-04-07T00:05:48;23.60;41.90
21425;DHT22;10873;51.132;16.848;2023-04-07T00:08:14;23.70;41.90
21425;DHT22;10873;51.132;16.848;2023-04-07T00:10:42;23.60;41.80
21425;DHT22;10873;51.132;16.848;2023-04-07T00:13:08;23.60;41.90
21425;DHT22;10873;51.132;16.848;2023-04-07T00:15:34;23.60;42.00
21425;DHT22;10873;51.132;16.848;2023-04-07T00:18:00;23.60;42.00
21425;DHT22;10873;51.132;16.848;2023-04-07T00:20:26;23.60;42.00
21425;DHT22;10873;51.132;16.848;2023-04-07T00:22:52;23.60;42.10
21425;DHT22;10873;51.132;16.848;2023-04-07T00:25:18;23.60;42.20
21425;DHT22;10873;51.132;16.848;2023-04-07T00:27:46;23.60;42.20
21425;DHT22;10873;51.132;16.848;2023-04-07T00:30:12;23.60;42.30
21425;DHT22;10873;51.132;16.848;2023-04-07T00:32:40;23.60;42.30
21425;DHT22;10873;51.132;16.848;2023-04-07T00:35:06;23.60;42.40
21425;DHT22;10873;51.132;16.848;2023-04-07T00:37:33;23.60;42.40
21425;DHT22;10873;51.132;16.848;2023-04-07T00:39:58;23.60;42.40
21425;DHT22;10873;51.132;16.848;2023-04-07T00:42:24;23.60;42.50
21425;DHT22;10873;51.132;16.848;2023-04-07T00:44:52;23.60;42.50
21425;DHT22;10873;51.132;16.848;2023-04-07T00:47:19;23.60;42.60
21425;DHT22;10873;51.132;16.848;2023-04-07T00:49:44;23.60;42.60
21425;DHT22;10873;51.132;16.848;2023-04-07T00:52:11;23.60;42.70
21425;DHT22;10873;51.132;16.848;2023-04-07T00:54:37;23.60;42.80
21425;DHT22;10873;51.132;16.848;2023-04-07T00:57:04;23.50;42.80
21425;DHT22;10873;51.132;16.848;2023-04-07T00:59:31;23.50;42.80
21425;DHT22;10873;51.132;16.848;2023-04-07T01:02:02;23.50;42.90
21425;DHT22;10873;51.132;16.848;2023-04-07T01:04:32;23.50;42.90
21425;DHT22;10873;51.132;16.848;2023-04-07T01:07:03;23.50;42.90
21425;DHT22;10873;51.132;16.848;2023-04-07T01:09:36;23.50;42.90
21425;DHT22;10873;51.132;16.848;2023-04-07T01:12:06;23.50;43.00
21425;DHT22;10873;51.132;16.848;2023-04-07T01:14:40;23.50;43.00
21425;DHT22;10873;51.132;16.848;2023-04-07T01:17:09;23.50;43.00
21425;DHT22;10873;51.132;16.848;2023-04-07T01:19:38;23.50;43.10
21425;DHT22;10873;51.132;16.848;2023-04-07T01:22:10;23.50;43.10
21425;DHT22;10873;51.132;16.848;2023-04-07T01:25:04;23.50;43.20
21425;DHT22;10873;51.132;16.848;2023-04-07T01:27:37;23.50;43.20
21425;DHT22;10873;51.132;16.848;2023-04-07T01:30:09;23.50;43.30
21425;DHT22;10873;51.132;16.848;2023-04-07T01:32:37;23.50;43.30
21425;DHT22;10873;51.132;16.848;2023-04-07T01:35:09;23.50;43.30
21425;DHT22;10873;51.132;16.848;2023-04-07T01:37:38;23.50;43.30
21425;DHT22;10873;51.132;16.848;2023-04-07T01:40:05;23.50;43.30
21425;DHT22;10873;51.132;16.848;2023-04-07T01:42:33;23.50;43.30
21425;DHT22;10873;51.132;16.848;2023-04-07T01:45:01;23.50;43.30
21425;DHT22;10873;51.132;16.848;2023-04-07T01:47:30;23.50;43.40
21425;DHT22;10873;51.132;16.848;2023-04-07T01:49:57;23.50;43.40
21425;DHT22;10873;51.132;16.848;2023-04-07T01:52:25;23.50;43.50
21425;DHT22;10873;51.132;16.848;2023-04-07T01:54:51;23.50;43.50
21425;DHT22;10873;51.132;16.848;2023-04-07T01:57:18;23.50;43.60
21425;DHT22;10873;51.132;16.848;2023-04-07T01:59:43;23.50;43.50
21425;DHT22;10873;51.132;16.848;2023-04-07T02:02:10;23.50;43.60
21425;DHT22;10873;51.132;16.848;2023-04-07T02:04:42;23.50;43.60
21425;DHT22;10873;51.132;16.848;2023-04-07T02:07:18;23.50;43.60
21425;DHT22;10873;51.132;16.848;2023-04-07T02:09:46;23.50;43.60
21425;DHT22;10873;51.132;16.848;2023-04-07T02:12:14;23.50;43.70
21425;DHT22;10873;51.132;16.848;2023-04-07T02:14:42;23.50;43.70
21425;DHT22;10873;51.132;16.848;2023-04-07T02:17:09;23.50;43.80
21425;DHT22;10873;51.132;16.848;2023-04-07T02:19:37;23.50;43.80
21425;DHT22;10873;51.132;16.848;2023-04-07T02:22:04;23.50;43.80
21425;DHT22;10873;51.132;16.848;2023-04-07T02:24:30;23.50;43.90
21425;DHT22;10873;51.132;16.848;2023-04-07T02:26:56;23.50;43.90
21425;DHT22;10873;51.132;16.848;2023-04-07T02:29:22;23.50;43.90
21425;DHT22;10873;51.132;16.848;2023-04-07T02:31:48;23.50;43.90
21425;DHT22;10873;51.132;16.848;2023-04-07T02:34:14;23.50;43.90
21425;DHT22;10873;51.132;16.848;2023-04-07T02:36:41;23.50;43.90
21425;DHT22;10873;51.132;16.848;2023-04-07T02:39:08;23.50;43.90
21425;DHT22;10873;51.132;16.848;2023-04-07T02:41:35;23.50;44.00
21425;DHT22;10873;51.132;16.848;2023-04-07T02:44:01;23.50;44.00
21425;DHT22;10873;51.132;16.848;2023-04-07T02:46:27;23.50;44.00
21425;DHT22;10873;51.132;16.848;2023-04-07T02:48:53;23.50;44.00
21425;DHT22;10873;51.132;16.848;2023-04-07T02:51:19;23.50;44.00
21425;DHT22;10873;51.132;16.848;2023-04-07T02:53:46;23.50;44.00
21425;DHT22;10873;51.132;16.848;2023-04-07T02:56:14;23.50;44.10
21425;DHT22;10873;51.132;16.848;2023-04-07T02:58:40;23.50;44.00
21425;DHT22;10873;51.132;16.848;2023-04-07T03:01:06;23.50;44.10
21425;DHT22;10873;51.132;16.848;2023-04-07T03:03:32;23.50;44.10
21425;DHT22;10873;51.132;16.848;2023-04-07T03:05:58;23.50;44.10
21425;DHT22;10873;51.132;16.848;2023-04-07T03:08:25;23.50;44.10
21425;DHT22;10873;51.132;16.848;2023-04-07T03:10:53;23.50;44.20
21425;DHT22;10873;51.132;16.848;2023-04-07T03:13:19;23.50;44.20
21425;DHT22;10873;51.132;16.848;2023-04-07T03:15:46;23.50;44.20
21425;DHT22;10873;51.132;16.848;2023-04-07T03:18:12;23.50;44.20
21425;DHT22;10873;51.132;16.848;2023-04-07T03:20:38;23.50;44.30
21425;DHT22;10873;51.132;16.848;2023-04-07T03:23:06;23.50;44.20
21425;DHT22;10873;51.132;16.848;2023-04-07T03:25:32;23.50;44.20
21425;DHT22;10873;51.132;16.848;2023-04-07T03:28:00;23.50;44.30
21425;DHT22;10873;51.132;16.848;2023-04-07T03:30:26;23.50;44.30
21425;DHT22;10873;51.132;16.848;2023-04-07T03:32:52;23.50;44.20
21425;DHT22;10873;51.132;16.848;2023-04-07T03:35:18;23.50;44.30
21425;DHT22;10873;51.132;16.848;2023-04-07T03:37:44;23.50;44.30
21425;DHT22;10873;51.132;16.848;2023-04-07T03:40:11;23.50;44.30
21425;DHT22;10873;51.132;16.848;2023-04-07T03:42:36;23.50;44.40
21425;DHT22;10873;51.132;16.848;2023-04-07T03:45:05;23.50;44.40
21425;DHT22;10873;51.132;16.848;2023-04-07T03:47:31;23.50;44.40
21425;DHT22;10873;51.132;16.848;2023-04-07T03:49:57;23.50;45.00
21425;DHT22;10873;51.132;16.848;2023-04-07T03:52:23;23.50;44.40
21425;DHT22;10873;51.132;16.848;2023-04-07T03:54:49;23.50;44.40
21425;DHT22;10873;51.132;16.848;2023-04-07T03:57:15;23.50;44.40
21425;DHT22;10873;51.132;16.848;2023-04-07T03:59:41;23.50;44.40
21425;DHT22;10873;51.132;16.848;2023-04-07T04:02:08;23.50;44.40
21425;DHT22;10873;51.132;16.848;2023-04-07T04:04:34;23.50;44.40
21425;DHT22;10873;51.132;16.848;2023-04-07T04:07:00;23.50;44.50
21425;DHT22;10873;51.132;16.848;2023-04-07T04:09:27;23.50;44.50
21425;DHT22;10873;51.132;16.848;2023-04-07T04:11:53;23.50;44.50
21425;DHT22;10873;51.132;16.848;2023-04-07T04:14:19;23.50;44.50
21425;DHT22;10873;51.132;16.848;2023-04-07T04:16:44;23.50;44.50
21425;DHT22;10873;51.132;16.848;2023-04-07T04:19:12;23.50;44.60
21425;DHT22;10873;51.132;16.848;2023-04-07T04:21:38;23.50;44.60
21425;DHT22;10873;51.132;16.848;2023-04-07T04:24:04;23.50;44.60
21425;DHT22;10873;51.132;16.848;2023-04-07T04:26:31;23.50;44.50
21425;DHT22;10873;51.132;16.848;2023-04-07T04:28:57;23.50;44.50
21425;DHT22;10873;51.132;16.848;2023-04-07T04:31:23;23.60;44.60
21425;DHT22;10873;51.132;16.848;2023-04-07T04:33:49;23.50;44.50
21425;DHT22;10873;51.132;16.848;2023-04-07T04:36:16;23.50;44.50
21425;DHT22;10873;51.132;16.848;2023-04-07T04:38:42;23.50;44.50
21425;DHT22;10873;51.132;16.848;2023-04-07T04:41:08;23.50;44.50
21425;DHT22;10873;51.132;16.848;2023-04-07T04:43:34;23.50;44.60
21425;DHT22;10873;51.132;16.848;2023-04-07T04:46:00;23.50;44.60
21425;DHT22;10873;51.132;16.848;2023-04-07T04:48:26;23.50;44.60
21425;DHT22;10873;51.132;16.848;2023-04-07T04:50:52;23.50;44.60
21425;DHT22;10873;51.132;16.848;2023-04-07T04:53:20;23.60;44.80
21425;DHT22;10873;51.132;16.848;2023-04-07T04:55:45;23.50;44.60
21425;DHT22;10873;51.132;16.848;2023-04-07T04:58:13;23.50;44.70
21425;DHT22;10873;51.132;16.848;2023-04-07T05:00:38;23.60;44.70
21425;DHT22;10873;51.132;16.848;2023-04-07T05:03:04;23.60;44.70
21425;DHT22;10873;51.132;16.848;2023-04-07T05:05:30;23.60;44.60
21425;DHT22;10873;51.132;16.848;2023-04-07T05:07:57;23.60;44.60
21425;DHT22;10873;51.132;16.848;2023-04-07T05:10:24;23.60;44.60
21425;DHT22;10873;51.132;16.848;2023-04-07T05:12:50;23.60;44.60
21425;DHT22;10873;51.132;16.848;2023-04-07T05:15:16;23.60;44.50
21425;DHT22;10873;51.132;16.848;2023-04-07T05:17:42;23.60;44.50
21425;DHT22;10873;51.132;16.848;2023-04-07T05:20:09;23.60;44.60
21425;DHT22;10873;51.132;16.848;2023-04-07T05:22:35;23.60;44.60
21425;DHT22;10873;51.132;16.848;2023-04-07T05:25:02;23.60;44.60
21425;DHT22;10873;51.132;16.848;2023-04-07T05:27:29;23.60;44.60
21425;DHT22;10873;51.132;16.848;2023-04-07T05:29:55;23.60;44.60
21425;DHT22;10873;51.132;16.848;2023-04-07T05:32:21;23.60;44.60
21425;DHT22;10873;51.132;16.848;2023-04-07T05:34:47;23.60;44.60
21425;DHT22;10873;51.132;16.848;2023-04-07T05:37:13;23.60;44.60
21425;DHT22;10873;51.132;16.848;2023-04-07T05:39:40;23.60;44.60
21425;DHT22;10873;51.132;16.848;2023-04-07T05:42:06;23.60;44.50
21425;DHT22;10873;51.132;16.848;2023-04-07T05:44:33;23.60;44.50
21425;DHT22;10873;51.132;16.848;2023-04-07T05:46:59;23.60;44.50
21425;DHT22;10873;51.132;16.848;2023-04-07T05:49:25;23.60;44.50
21425;DHT22;10873;51.132;16.848;2023-04-07T05:51:52;23.60;44.50
21425;DHT22;10873;51.132;16.848;2023-04-07T05:54:18;23.60;44.50
21425;DHT22;10873;51.132;16.848;2023-04-07T05:56:44;23.60;44.50
21425;DHT22;10873;51.132;16.848;2023-04-07T05:59:10;23.60;44.40
21425;DHT22;10873;51.132;16.848;2023-04-07T06:01:37;23.70;44.50
21425;DHT22;10873;51.132;16.848;2023-04-07T06:04:03;23.60;44.50
21425;DHT22;10873;51.132;16.848;2023-04-07T06:06:30;23.60;44.50
21425;DHT22;10873;51.132;16.848;2023-04-07T06:08:55;23.60;44.50
21425;DHT22;10873;51.132;16.848;2023-04-07T06:11:22;23.60;44.50
21425;DHT22;10873;51.132;16.848;2023-04-07T06:13:47;23.60;44.60
21425;DHT22;10873;51.132;16.848;2023-04-07T06:16:14;23.60;44.60
21425;DHT22;10873;51.132;16.848;2023-04-07T06:18:41;23.60;44.60
21425;DHT22;10873;51.132;16.848;2023-04-07T06:21:07;23.60;44.60
21425;DHT22;10873;51.132;16.848;2023-04-07T06:23:33;23.70;44.60
21425;DHT22;10873;51.132;16.848;2023-04-07T06:25:59;23.60;44.60
21425;DHT22;10873;51.132;16.848;2023-04-07T06:28:25;23.70;44.60
21425;DHT22;10873;51.132;16.848;2023-04-07T06:30:51;23.70;44.60
21425;DHT22;10873;51.132;16.848;2023-04-07T06:33:17;23.70;44.60
21425;DHT22;10873;51.132;16.848;2023-04-07T06:35:45;23.70;44.60
21425;DHT22;10873;51.132;16.848;2023-04-07T06:38:11;23.70;44.50
21425;DHT22;10873;51.132;16.848;2023-04-07T06:40:37;23.70;44.50
21425;DHT22;10873;51.132;16.848;2023-04-07T06:43:03;23.70;44.50
21425;DHT22;10873;51.132;16.848;2023-04-07T06:45:29;23.70;44.60
21425;DHT22;10873;51.132;16.848;2023-04-07T06:47:55;23.60;44.50
21425;DHT22;10873;51.132;16.848;2023-04-07T06:50:21;23.60;44.60
21425;DHT22;10873;51.132;16.848;2023-04-07T06:52:49;23.60;44.60
21425;DHT22;10873;51.132;16.848;2023-04-07T06:55:15;23.60;44.60
21425;DHT22;10873;51.132;16.848;2023-04-07T06:57:41;23.60;44.60
21425;DHT22;10873;51.132;16.848;2023-04-07T07:00:08;23.60;44.60
21425;DHT22;10873;51.132;16.848;2023-04-07T07:02:34;23.70;44.60
21425;DHT22;10873;51.132;16.848;2023-04-07T07:05:01;23.70;44.70
21425;DHT22;10873;51.132;16.848;2023-04-07T07:07:29;23.70;44.60
21425;DHT22;10873;51.132;16.848;2023-04-07T07:10:25;23.70;44.60
21425;DHT22;10873;51.132;16.848;2023-04-07T07:13:23;23.70;44.60
21425;DHT22;10873;51.132;16.848;2023-04-07T07:16:10;23.70;44.50
21425;DHT22;10873;51.132;16.848;2023-04-07T07:21:31;23.70;44.50
21425;DHT22;10873;51.132;16.848;2023-04-07T07:24:13;23.80;44.50
21425;DHT22;10873;51.132;16.848;2023-04-07T07:27:09;23.70;44.50
21425;DHT22;10873;51.132;16.848;2023-04-07T07:29:44;23.70;44.50
21425;DHT22;10873;51.132;16.848;2023-04-07T07:32:20;23.70;44.50
21425;DHT22;10873;51.132;16.848;2023-04-07T07:35:00;23.70;44.50
21425;DHT22;10873;51.132;16.848;2023-04-07T07:37:26;23.70;44.50
21425;DHT22;10873;51.132;16.848;2023-04-07T07:39:53;23.70;44.50
21425;DHT22;10873;51.132;16.848;2023-04-07T07:42:21;23.70;44.60
21425;DHT22;10873;51.132;16.848;2023-04-07T07:44:58;23.70;44.60
21425;DHT22;10873;51.132;16.848;2023-04-07T07:48:09;23.70;44.70
21425;DHT22;10873;51.132;16.848;2023-04-07T07:53:37;23.70;44.80
21425;DHT22;10873;51.132;16.848;2023-04-07T07:59:08;23.70;44.80
21425;DHT22;10873;51.132;16.848;2023-04-07T08:02:09;23.70;44.80
21425;DHT22;10873;51.132;16.848;2023-04-07T08:04:53;23.70;44.80
21425;DHT22;10873;51.132;16.848;2023-04-07T08:07:31;23.80;44.80
21425;DHT22;10873;51.132;16.848;2023-04-07T08:10:01;23.80;44.70
21425;DHT22;10873;51.132;16.848;2023-04-07T08:12:27;23.80;44.70
21425;DHT22;10873;51.132;16.848;2023-04-07T08:14:57;23.80;44.70
21425;DHT22;10873;51.132;16.848;2023-04-07T08:17:26;23.80;44.70
21425;DHT22;10873;51.132;16.848;2023-04-07T08:20:19;23.80;44.70
21425;DHT22;10873;51.132;16.848;2023-04-07T08:22:45;23.80;44.70
21425;DHT22;10873;51.132;16.848;2023-04-07T08:25:38;23.70;44.80
21425;DHT22;10873;51.132;16.848;2023-04-07T08:30:41;23.70;44.80
21425;DHT22;10873;51.132;16.848;2023-04-07T08:33:07;23.70;44.80
21425;DHT22;10873;51.132;16.848;2023-04-07T08:35:33;23.70;44.80
21425;DHT22;10873;51.132;16.848;2023-04-07T08:37:59;23.70;44.80
21425;DHT22;10873;51.132;16.848;2023-04-07T08:40:27;23.80;44.90
21425;DHT22;10873;51.132;16.848;2023-04-07T08:42:54;23.80;44.80
21425;DHT22;10873;51.132;16.848;2023-04-07T08:45:21;23.80;44.80
21425;DHT22;10873;51.132;16.848;2023-04-07T08:47:51;23.80;44.80
21425;DHT22;10873;51.132;16.848;2023-04-07T08:50:20;23.80;44.80
21425;DHT22;10873;51.132;16.848;2023-04-07T08:52:51;23.80;44.80
21425;DHT22;10873;51.132;16.848;2023-04-07T08:55:18;23.80;44.80
21425;DHT22;10873;51.132;16.848;2023-04-07T08:57:45;23.80;44.80
21425;DHT22;10873;51.132;16.848;2023-04-07T09:00:12;23.80;44.80
21425;DHT22;10873;51.132;16.848;2023-04-07T09:02:39;23.80;44.90
21425;DHT22;10873;51.132;16.848;2023-04-07T09:05:08;23.70;44.90
21425;DHT22;10873;51.132;16.848;2023-04-07T09:07:35;23.70;44.90
21425;DHT22;10873;51.132;16.848;2023-04-07T09:10:02;23.70;44.90
21425;DHT22;10873;51.132;16.848;2023-04-07T09:12:29;23.70;44.90
21425;DHT22;10873;51.132;16.848;2023-04-07T09:14:56;23.80;45.00
21425;DHT22;10873;51.132;16.848;2023-04-07T09:17:24;23.80;45.00
21425;DHT22;10873;51.132;16.848;2023-04-07T09:19:50;23.80;45.00
21425;DHT22;10873;51.132;16.848;2023-04-07T09:22:33;23.80;45.00
21425;DHT22;10873;51.132;16.848;2023-04-07T09:25:08;23.80;44.90
21425;DHT22;10873;51.132;16.848;2023-04-07T09:27:35;23.80;44.90
21425;DHT22;10873;51.132;16.848;2023-04-07T09:30:10;23.80;44.90
21425;DHT22;10873;51.132;16.848;2023-04-07T09:32:37;23.80;44.80
21425;DHT22;10873;51.132;16.848;2023-04-07T09:35:04;23.80;44.80
21425;DHT22;10873;51.132;16.848;2023-04-07T09:37:31;23.80;44.80
21425;DHT22;10873;51.132;16.848;2023-04-07T09:39:58;23.90;44.90
21425;DHT22;10873;51.132;16.848;2023-04-07T09:42:25;23.80;44.90
21425;DHT22;10873;51.132;16.848;2023-04-07T09:44:55;23.80;45.00
21425;DHT22;10873;51.132;16.848;2023-04-07T09:47:25;23.80;45.00
21425;DHT22;10873;51.132;16.848;2023-04-07T09:49:54;23.80;45.00
21425;DHT22;10873;51.132;16.848;2023-04-07T09:52:24;23.80;45.00
21425;DHT22;10873;51.132;16.848;2023-04-07T09:54:53;23.80;45.00
21425;DHT22;10873;51.132;16.848;2023-04-07T09:57:21;23.90;45.10
21425;DHT22;10873;51.132;16.848;2023-04-07T09:59:47;23.80;45.00
21425;DHT22;10873;51.132;16.848;2023-04-07T10:02:15;23.80;45.00
21425;DHT22;10873;51.132;16.848;2023-04-07T10:04:41;23.90;45.70
21425;DHT22;10873;51.132;16.848;2023-04-07T10:07:07;23.90;45.00
21425;DHT22;10873;51.132;16.848;2023-04-07T10:09:33;23.90;45.00
21425;DHT22;10873;51.132;16.848;2023-04-07T10:12:01;23.90;45.00
21425;DHT22;10873;51.132;16.848;2023-04-07T10:14:30;23.90;45.00
21425;DHT22;10873;51.132;16.848;2023-04-07T10:16:58;23.90;45.00
21425;DHT22;10873;51.132;16.848;2023-04-07T10:19:24;23.90;45.00
21425;DHT22;10873;51.132;16.848;2023-04-07T10:21:54;23.90;45.00
21425;DHT22;10873;51.132;16.848;2023-04-07T10:24:32;23.90;45.00
21425;DHT22;10873;51.132;16.848;2023-04-07T10:27:07;23.80;45.00
21425;DHT22;10873;51.132;16.848;2023-04-07T10:29:40;23.80;45.00
21425;DHT22;10873;51.132;16.848;2023-04-07T10:32:07;23.80;45.00
21425;DHT22;10873;51.132;16.848;2023-04-07T10:34:55;23.90;45.10
21425;DHT22;10873;51.132;16.848;2023-04-07T10:37:24;23.90;45.10
21425;DHT22;10873;51.132;16.848;2023-04-07T10:39:52;23.90;45.10
21425;DHT22;10873;51.132;16.848;2023-04-07T10:42:45;23.90;45.10
21425;DHT22;10873;51.132;16.848;2023-04-07T10:45:14;23.90;45.10
21425;DHT22;10873;51.132;16.848;2023-04-07T10:48:08;23.90;45.10
21425;DHT22;10873;51.132;16.848;2023-04-07T10:50:34;23.90;45.20
21425;DHT22;10873;51.132;16.848;2023-04-07T10:53:05;23.90;45.20
21425;DHT22;10873;51.132;16.848;2023-04-07T10:55:34;23.90;45.20
21425;DHT22;10873;51.132;16.848;2023-04-07T10:58:21;23.90;45.20
21425;DHT22;10873;51.132;16.848;2023-04-07T11:01:15;23.90;45.20
21425;DHT22;10873;51.132;16.848;2023-04-07T11:03:56;23.90;45.30
21425;DHT22;10873;51.132;16.848;2023-04-07T11:06:22;23.90;45.30
21425;DHT22;10873;51.132;16.848;2023-04-07T11:08:49;23.80;45.30
21425;DHT22;10873;51.132;16.848;2023-04-07T11:11:19;23.80;45.40
21425;DHT22;10873;51.132;16.848;2023-04-07T11:13:48;23.90;45.40
21425;DHT22;10873;51.132;16.848;2023-04-07T11:16:15;23.90;45.50
21425;DHT22;10873;51.132;16.848;2023-04-07T11:18:43;23.90;45.50
21425;DHT22;10873;51.132;16.848;2023-04-07T11:21:09;23.90;45.50
21425;DHT22;10873;51.132;16.848;2023-04-07T11:23:38;23.90;45.40
21425;DHT22;10873;51.132;16.848;2023-04-07T11:26:04;23.90;45.40
21425;DHT22;10873;51.132;16.848;2023-04-07T11:28:30;24.00;45.50
21425;DHT22;10873;51.132;16.848;2023-04-07T11:30:58;23.90;45.40
21425;DHT22;10873;51.132;16.848;2023-04-07T11:33:27;23.90;45.40
21425;DHT22;10873;51.132;16.848;2023-04-07T11:35:54;23.90;45.70
21425;DHT22;10873;51.132;16.848;2023-04-07T11:38:22;23.90;45.50
21425;DHT22;10873;51.132;16.848;2023-04-07T11:40:48;23.90;45.50
21425;DHT22;10873;51.132;16.848;2023-04-07T11:43:16;23.90;45.60
21425;DHT22;10873;51.132;16.848;2023-04-07T11:45:42;23.90;45.60
21425;DHT22;10873;51.132;16.848;2023-04-07T11:48:29;23.90;45.60
21425;DHT22;10873;51.132;16.848;2023-04-07T11:50:55;23.90;45.70
21425;DHT22;10873;51.132;16.848;2023-04-07T11:53:25;23.90;45.70
21425;DHT22;10873;51.132;16.848;2023-04-07T11:55:59;23.90;45.70
21425;DHT22;10873;51.132;16.848;2023-04-07T11:58:25;23.90;45.60
21425;DHT22;10873;51.132;16.848;2023-04-07T12:00:52;23.90;45.60
21425;DHT22;10873;51.132;16.848;2023-04-07T12:03:19;23.90;45.70
21425;DHT22;10873;51.132;16.848;2023-04-07T12:05:46;23.90;45.70
21425;DHT22;10873;51.132;16.848;2023-04-07T12:08:13;23.90;45.70
21425;DHT22;10873;51.132;16.848;2023-04-07T12:10:40;24.00;45.70
21425;DHT22;10873;51.132;16.848;2023-04-07T12:13:07;23.90;45.70
21425;DHT22;10873;51.132;16.848;2023-04-07T12:15:33;23.90;45.70
21425;DHT22;10873;51.132;16.848;2023-04-07T12:17:59;23.90;45.80
21425;DHT22;10873;51.132;16.848;2023-04-07T12:20:26;23.90;45.80
21425;DHT22;10873;51.132;16.848;2023-04-07T12:22:53;23.90;45.90
21425;DHT22;10873;51.132;16.848;2023-04-07T12:25:19;23.90;45.90
21425;DHT22;10873;51.132;16.848;2023-04-07T12:27:45;23.90;45.90
21425;DHT22;10873;51.132;16.848;2023-04-07T12:30:12;23.90;45.90
21425;DHT22;10873;51.132;16.848;2023-04-07T12:32:38;24.00;46.00
21425;DHT22;10873;51.132;16.848;2023-04-07T12:35:05;24.00;45.90
21425;DHT22;10873;51.132;16.848;2023-04-07T12:37:31;24.00;45.90
21425;DHT22;10873;51.132;16.848;2023-04-07T12:39:59;24.00;45.90
21425;DHT22;10873;51.132;16.848;2023-04-07T12:42:25;24.00;45.90
21425;DHT22;10873;51.132;16.848;2023-04-07T12:44:51;24.00;45.90
21425;DHT22;10873;51.132;16.848;2023-04-07T12:47:18;24.00;45.90
21425;DHT22;10873;51.132;16.848;2023-04-07T12:49:43;24.00;45.90
21425;DHT22;10873;51.132;16.848;2023-04-07T12:52:09;23.90;45.90
21425;DHT22;10873;51.132;16.848;2023-04-07T12:54:36;23.90;46.60
21425;DHT22;10873;51.132;16.848;2023-04-07T12:57:04;23.90;46.00
21425;DHT22;10873;51.132;16.848;2023-04-07T12:59:30;23.90;46.00
21425;DHT22;10873;51.132;16.848;2023-04-07T13:01:56;23.90;46.00
21425;DHT22;10873;51.132;16.848;2023-04-07T13:04:22;23.90;46.00
21425;DHT22;10873;51.132;16.848;2023-04-07T13:06:49;24.00;46.10
21425;DHT22;10873;51.132;16.848;2023-04-07T13:09:15;24.00;46.00
21425;DHT22;10873;51.132;16.848;2023-04-07T13:11:41;24.00;46.00
21425;DHT22;10873;51.132;16.848;2023-04-07T13:14:09;24.00;46.00
21425;DHT22;10873;51.132;16.848;2023-04-07T13:16:35;23.90;46.00
21425;DHT22;10873;51.132;16.848;2023-04-07T13:19:01;24.00;46.00
21425;DHT22;10873;51.132;16.848;2023-04-07T13:21:27;23.90;46.00
21425;DHT22;10873;51.132;16.848;2023-04-07T13:23:53;23.90;46.00
21425;DHT22;10873;51.132;16.848;2023-04-07T13:26:19;23.90;46.10
21425;DHT22;10873;51.132;16.848;2023-04-07T13:28:45;23.90;46.10
21425;DHT22;10873;51.132;16.848;2023-04-07T13:31:14;23.90;46.10
21425;DHT22;10873;51.132;16.848;2023-04-07T13:33:40;23.90;46.10
21425;DHT22;10873;51.132;16.848;2023-04-07T13:36:06;24.00;46.20
21425;DHT22;10873;51.132;16.848;2023-04-07T13:38:32;24.00;46.20
21425;DHT22;10873;51.132;16.848;2023-04-07T13:40:58;24.00;46.10
21425;DHT22;10873;51.132;16.848;2023-04-07T13:43:24;24.00;46.10
21425;DHT22;10873;51.132;16.848;2023-04-07T13:45:51;24.00;46.10
21425;DHT22;10873;51.132;16.848;2023-04-07T13:48:18;24.00;46.10
21425;DHT22;10873;51.132;16.848;2023-04-07T13:50:45;24.00;46.10
21425;DHT22;10873;51.132;16.848;2023-04-07T13:53:11;24.00;46.10
21425;DHT22;10873;51.132;16.848;2023-04-07T13:55:37;23.90;46.00
21425;DHT22;10873;51.132;16.848;2023-04-07T13:58:03;23.90;46.10
21425;DHT22;10873;51.132;16.848;2023-04-07T14:00:29;23.90;46.10
21425;DHT22;10873;51.132;16.848;2023-04-07T14:02:55;23.90;46.10
21425;DHT22;10873;51.132;16.848;2023-04-07T14:05:23;23.90;46.10
21425;DHT22;10873;51.132;16.848;2023-04-07T14:07:49;24.00;46.20
21425;DHT22;10873;51.132;16.848;2023-04-07T14:10:16;24.00;46.10
21425;DHT22;10873;51.132;16.848;2023-04-07T14:12:41;24.00;46.10
21425;DHT22;10873;51.132;16.848;2023-04-07T14:15:08;24.00;46.10
21425;DHT22;10873;51.132;16.848;2023-04-07T14:17:34;24.00;46.00
21425;DHT22;10873;51.132;16.848;2023-04-07T14:20:02;24.00;46.00
21425;DHT22;10873;51.132;16.848;2023-04-07T14:22:29;24.00;46.00
21425;DHT22;10873;51.132;16.848;2023-04-07T14:24:56;24.00;46.10
21425;DHT22;10873;51.132;16.848;2023-04-07T14:27:22;24.00;46.00
21425;DHT22;10873;51.132;16.848;2023-04-07T14:29:48;24.00;46.00
21425;DHT22;10873;51.132;16.848;2023-04-07T14:32:14;24.00;46.10
21425;DHT22;10873;51.132;16.848;2023-04-07T14:34:40;24.00;46.10
21425;DHT22;10873;51.132;16.848;2023-04-07T14:37:06;23.90;46.00
21425;DHT22;10873;51.132;16.848;2023-04-07T14:39:34;24.00;46.10
21425;DHT22;10873;51.132;16.848;2023-04-07T14:42:00;24.00;46.20
21425;DHT22;10873;51.132;16.848;2023-04-07T14:44:26;24.00;46.20
21425;DHT22;10873;51.132;16.848;2023-04-07T14:46:53;24.00;46.20
21425;DHT22;10873;51.132;16.848;2023-04-07T14:49:20;24.00;46.20
21425;DHT22;10873;51.132;16.848;2023-04-07T14:51:46;24.00;46.10
21425;DHT22;10873;51.132;16.848;2023-04-07T14:54:12;24.00;46.10
21425;DHT22;10873;51.132;16.848;2023-04-07T14:56:39;24.00;46.10
21425;DHT22;10873;51.132;16.848;2023-04-07T14:59:06;24.00;46.10
21425;DHT22;10873;51.132;16.848;2023-04-07T15:01:32;24.00;46.20
21425;DHT22;10873;51.132;16.848;2023-04-07T15:03:58;24.00;46.20
21425;DHT22;10873;51.132;16.848;2023-04-07T15:06:25;23.90;46.20
21425;DHT22;10873;51.132;16.848;2023-04-07T15:08:52;23.90;46.20
21425;DHT22;10873;51.132;16.848;2023-04-07T15:11:18;23.90;46.20
21425;DHT22;10873;51.132;16.848;2023-04-07T15:13:45;23.90;46.30
21425;DHT22;10873;51.132;16.848;2023-04-07T15:16:12;24.00;46.30
21425;DHT22;10873;51.132;16.848;2023-04-07T15:18:40;24.00;46.30
21425;DHT22;10873;51.132;16.848;2023-04-07T15:21:07;24.00;46.30
21425;DHT22;10873;51.132;16.848;2023-04-07T15:23:33;24.00;46.30
21425;DHT22;10873;51.132;16.848;2023-04-07T15:25:59;24.00;46.30
21425;DHT22;10873;51.132;16.848;2023-04-07T15:28:25;24.10;46.30
21425;DHT22;10873;51.132;16.848;2023-04-07T15:30:52;24.10;46.20
21425;DHT22;10873;51.132;16.848;2023-04-07T15:33:19;24.10;46.20